sensor_id;sensor_type;location;lat;lon;timestamp;temperature;humidity
16578;DHT22;8401;52.528;13.340;2022-12-18T00:00:47;-3.40;99.90
16578;DHT22;8401;52.528;13.340;2022-12-18T00:03:16;-3.50;99.90
16578;DHT22;8401;52.528;13.340;2022-12-18T00:05:49;-3.60;99.90
16578;DHT22;8401;52.528;13.340;2022-12-18T00:08:16;-3.70;99.90
16578;DHT22;8401;52.528;13.340;2022-12-18T00:10:42;-3.50;99.90
16578;DHT22;8401;52.528;13.340;2022-12-18T00:13:08;-3.70;99.90
16578;DHT22;8401;52.528;13.340;2022-12-18T00:15:35;-3.80;99.90
16578;DHT22;8401;52.528;13.340;2022-12-18T00:18:00;-3.90;99.90
16578;DHT22;8401;52.528;13.340;2022-12-18T00:20:26;-3.90;99.90
16578;DHT22;8401;52.528;13.340;2022-12-18T00:22:55;-4.00;99.90
16578;DHT22;8401;52.528;13.340;2022-12-18T00:25:21;-4.10;99.90
16578;DHT22;8401;52.528;13.340;2022-12-18T00:27:47;-4.00;99.90
16578;DHT22;8401;52.528;13.340;2022-12-18T00:30:12;-3.70;99.90
16578;DHT22;8401;52.528;13.340;2022-12-18T00:32:38;-3.50;99.90
16578;DHT22;8401;52.528;13.340;2022-12-18T00:35:05;-3.70;97.60
16578;DHT22;8401;52.528;13.340;2022-12-18T00:37:33;-3.90;99.90
16578;DHT22;8401;52.528;13.340;2022-12-18T00:40:02;-4.10;99.90
16578;DHT22;8401;52.528;13.340;2022-12-18T00:42:27;-4.20;99.90
16578;DHT22;8401;52.528;13.340;2022-12-18T00:45:12;-4.20;99.90
16578;DHT22;8401;52.528;13.340;2022-12-18T00:47:38;-4.30;99.90
16578;DHT22;8401;52.528;13.340;2022-12-18T00:50:04;-4.40;99.90
16578;DHT22;8401;52.528;13.340;2022-12-18T00:52:29;-4.20;99.90
16578;DHT22;8401;52.528;13.340;2022-12-18T00:54:55;-4.30;99.90
16578;DHT22;8401;52.528;13.340;2022-12-18T00:57:21;-4.40;99.90
16578;DHT22;8401;52.528;13.340;2022-12-18T00:59:46;-4.20;99.90
16578;DHT22;8401;52.528;13.340;2022-12-18T01:02:12;-4.20;99.90
16578;DHT22;8401;52.528;13.340;2022-12-18T01:04:38;-4.00;99.90
16578;DHT22;8401;52.528;13.340;2022-12-18T01:07:03;-4.00;99.90
16578;DHT22;8401;52.528;13.340;2022-12-18T01:09:29;-4.00;99.90
16578;DHT22;8401;52.528;13.340;2022-12-18T01:11:54;-4.10;99.90
16578;DHT22;8401;52.528;13.340;2022-12-18T01:14:20;-4.20;99.90
16578;DHT22;8401;52.528;13.340;2022-12-18T01:16:46;-4.30;99.90
16578;DHT22;8401;52.528;13.340;2022-12-18T01:19:12;-4.30;99.90
16578;DHT22;8401;52.528;13.340;2022-12-18T01:21:37;-4.30;99.90
16578;DHT22;8401;52.528;13.340;2022-12-18T01:24:04;-4.30;99.90
16578;DHT22;8401;52.528;13.340;2022-12-18T01:26:30;-4.30;99.90
16578;DHT22;8401;52.528;13.340;2022-12-18T01:28:56;-4.40;99.90
16578;DHT22;8401;52.528;13.340;2022-12-18T01:31:25;-4.40;99.90
16578;DHT22;8401;52.528;13.340;2022-12-18T01:33:52;-4.10;99.90
16578;DHT22;8401;52.528;13.340;2022-12-18T01:36:24;-4.10;99.90
16578;DHT22;8401;52.528;13.340;2022-12-18T01:38:51;-4.20;99.90
16578;DHT22;8401;52.528;13.340;2022-12-18T01:41:18;-4.20;99.90
16578;DHT22;8401;52.528;13.340;2022-12-18T01:43:56;-4.10;99.90
16578;DHT22;8401;52.528;13.340;2022-12-18T01:46:23;-4.10;99.90
16578;DHT22;8401;52.528;13.340;2022-12-18T01:48:52;-4.10;99.90
16578;DHT22;8401;52.528;13.340;2022-12-18T01:51:18;-4.30;99.90
16578;DHT22;8401;52.528;13.340;2022-12-18T01:53:45;-4.40;99.90
16578;DHT22;8401;52.528;13.340;2022-12-18T01:56:14;-4.40;99.90
16578;DHT22;8401;52.528;13.340;2022-12-18T01:59:04;-4.30;99.90
16578;DHT22;8401;52.528;13.340;2022-12-18T02:01:32;-4.30;99.90
16578;DHT22;8401;52.528;13.340;2022-12-18T02:04:26;-4.00;99.90
16578;DHT22;8401;52.528;13.340;2022-12-18T02:09:46;-3.90;99.90
16578;DHT22;8401;52.528;13.340;2022-12-18T02:12:24;-3.70;99.90
16578;DHT22;8401;52.528;13.340;2022-12-18T02:17:38;-4.00;99.90
16578;DHT22;8401;52.528;13.340;2022-12-18T02:28:00;-3.80;97.10
16578;DHT22;8401;52.528;13.340;2022-12-18T02:30:31;-3.90;97.30
16578;DHT22;8401;52.528;13.340;2022-12-18T02:33:00;-4.00;99.90
16578;DHT22;8401;52.528;13.340;2022-12-18T02:35:29;-4.10;99.90
16578;DHT22;8401;52.528;13.340;2022-12-18T02:37:56;-4.10;99.90
16578;DHT22;8401;52.528;13.340;2022-12-18T02:40:24;-4.10;99.90
16578;DHT22;8401;52.528;13.340;2022-12-18T02:42:51;-4.00;99.90
16578;DHT22;8401;52.528;13.340;2022-12-18T02:45:17;-4.10;99.90
16578;DHT22;8401;52.528;13.340;2022-12-18T02:47:47;-4.20;99.90
16578;DHT22;8401;52.528;13.340;2022-12-18T02:50:16;-4.20;99.90
16578;DHT22;8401;52.528;13.340;2022-12-18T02:58:47;-4.20;99.90
16578;DHT22;8401;52.528;13.340;2022-12-18T03:03:46;-4.20;99.90
16578;DHT22;8401;52.528;13.340;2022-12-18T03:06:20;-4.20;99.90
16578;DHT22;8401;52.528;13.340;2022-12-18T03:08:52;-4.30;99.90
16578;DHT22;8401;52.528;13.340;2022-12-18T03:11:19;-4.40;99.90
16578;DHT22;8401;52.528;13.340;2022-12-18T03:14:06;-4.50;99.90
16578;DHT22;8401;52.528;13.340;2022-12-18T03:16:34;-4.50;99.90
16578;DHT22;8401;52.528;13.340;2022-12-18T03:19:04;-4.50;99.90
16578;DHT22;8401;52.528;13.340;2022-12-18T03:21:47;-4.50;99.90
16578;DHT22;8401;52.528;13.340;2022-12-18T03:24:15;-4.60;99.90
16578;DHT22;8401;52.528;13.340;2022-12-18T03:26:45;-4.50;99.90
16578;DHT22;8401;52.528;13.340;2022-12-18T03:29:34;-4.60;99.90
16578;DHT22;8401;52.528;13.340;2022-12-18T03:32:28;-4.50;99.90
16578;DHT22;8401;52.528;13.340;2022-12-18T03:34:58;-4.50;99.90
16578;DHT22;8401;52.528;13.340;2022-12-18T03:37:25;-4.50;99.90
16578;DHT22;8401;52.528;13.340;2022-12-18T03:39:50;-4.60;99.90
16578;DHT22;8401;52.528;13.340;2022-12-18T03:42:48;-4.60;99.90
16578;DHT22;8401;52.528;13.340;2022-12-18T03:48:00;-4.40;99.90
16578;DHT22;8401;52.528;13.340;2022-12-18T03:55:25;-4.30;99.80
16578;DHT22;8401;52.528;13.340;2022-12-18T03:57:54;-4.40;99.90
16578;DHT22;8401;52.528;13.340;2022-12-18T04:00:20;-4.50;99.90
16578;DHT22;8401;52.528;13.340;2022-12-18T04:02:54;-4.60;99.90
16578;DHT22;8401;52.528;13.340;2022-12-18T04:05:22;-4.80;99.90
16578;DHT22;8401;52.528;13.340;2022-12-18T04:07:51;-4.90;99.90
16578;DHT22;8401;52.528;13.340;2022-12-18T04:10:18;-4.90;99.90
16578;DHT22;8401;52.528;13.340;2022-12-18T04:12:43;-4.70;99.90
16578;DHT22;8401;52.528;13.340;2022-12-18T04:15:10;-4.70;99.90
16578;DHT22;8401;52.528;13.340;2022-12-18T04:17:37;-4.70;99.90
16578;DHT22;8401;52.528;13.340;2022-12-18T04:20:04;-4.70;99.90
16578;DHT22;8401;52.528;13.340;2022-12-18T04:22:29;-4.80;99.90
16578;DHT22;8401;52.528;13.340;2022-12-18T04:24:55;-4.80;99.90
16578;DHT22;8401;52.528;13.340;2022-12-18T04:27:21;-4.80;99.90
16578;DHT22;8401;52.528;13.340;2022-12-18T04:29:46;-4.80;99.90
16578;DHT22;8401;52.528;13.340;2022-12-18T04:32:12;-4.80;99.90
16578;DHT22;8401;52.528;13.340;2022-12-18T04:34:38;-4.90;99.90
16578;DHT22;8401;52.528;13.340;2022-12-18T04:37:03;-4.90;99.90
16578;DHT22;8401;52.528;13.340;2022-12-18T04:39:29;-4.90;99.90
16578;DHT22;8401;52.528;13.340;2022-12-18T04:41:55;-5.10;99.90
16578;DHT22;8401;52.528;13.340;2022-12-18T04:44:20;-5.10;99.90
16578;DHT22;8401;52.528;13.340;2022-12-18T04:46:46;-5.10;99.90
16578;DHT22;8401;52.528;13.340;2022-12-18T04:49:12;-5.10;99.90
16578;DHT22;8401;52.528;13.340;2022-12-18T04:51:38;-5.00;99.90
16578;DHT22;8401;52.528;13.340;2022-12-18T04:54:04;-5.00;99.90
16578;DHT22;8401;52.528;13.340;2022-12-18T04:56:31;-5.00;99.90
16578;DHT22;8401;52.528;13.340;2022-12-18T04:58:57;-5.00;99.90
16578;DHT22;8401;52.528;13.340;2022-12-18T05:01:23;-5.00;99.90
16578;DHT22;8401;52.528;13.340;2022-12-18T05:03:48;-5.20;99.90
16578;DHT22;8401;52.528;13.340;2022-12-18T05:06:14;-5.30;99.90
16578;DHT22;8401;52.528;13.340;2022-12-18T05:08:40;-5.20;99.90
16578;DHT22;8401;52.528;13.340;2022-12-18T05:11:10;-5.20;99.90
16578;DHT22;8401;52.528;13.340;2022-12-18T05:13:37;-5.10;99.90
16578;DHT22;8401;52.528;13.340;2022-12-18T05:16:03;-5.10;99.90
16578;DHT22;8401;52.528;13.340;2022-12-18T05:18:29;-5.00;99.90
16578;DHT22;8401;52.528;13.340;2022-12-18T05:20:55;-5.10;99.90
16578;DHT22;8401;52.528;13.340;2022-12-18T05:23:22;-5.20;99.90
16578;DHT22;8401;52.528;13.340;2022-12-18T05:25:53;-5.20;99.90
16578;DHT22;8401;52.528;13.340;2022-12-18T05:28:19;-5.20;99.90
16578;DHT22;8401;52.528;13.340;2022-12-18T05:30:50;-5.20;99.90
16578;DHT22;8401;52.528;13.340;2022-12-18T05:33:16;-5.20;99.90
16578;DHT22;8401;52.528;13.340;2022-12-18T05:35:42;-5.10;99.90
16578;DHT22;8401;52.528;13.340;2022-12-18T05:38:07;-5.10;99.90
16578;DHT22;8401;52.528;13.340;2022-12-18T05:40:33;-5.10;99.90
16578;DHT22;8401;52.528;13.340;2022-12-18T05:42:58;-5.10;99.90
16578;DHT22;8401;52.528;13.340;2022-12-18T05:45:24;-5.10;99.90
16578;DHT22;8401;52.528;13.340;2022-12-18T05:47:50;-5.10;99.90
16578;DHT22;8401;52.528;13.340;2022-12-18T05:50:15;-5.10;99.90
16578;DHT22;8401;52.528;13.340;2022-12-18T05:52:41;-5.10;99.90
16578;DHT22;8401;52.528;13.340;2022-12-18T05:55:07;-5.10;99.90
16578;DHT22;8401;52.528;13.340;2022-12-18T05:57:32;-5.10;99.90
16578;DHT22;8401;52.528;13.340;2022-12-18T05:59:58;-5.10;99.90
16578;DHT22;8401;52.528;13.340;2022-12-18T06:02:24;-5.10;99.90
16578;DHT22;8401;52.528;13.340;2022-12-18T06:04:49;-5.10;99.90
16578;DHT22;8401;52.528;13.340;2022-12-18T06:07:15;-5.20;99.90
16578;DHT22;8401;52.528;13.340;2022-12-18T06:09:41;-5.10;99.90
16578;DHT22;8401;52.528;13.340;2022-12-18T06:12:06;-4.90;99.90
16578;DHT22;8401;52.528;13.340;2022-12-18T06:14:32;-4.80;99.90
16578;DHT22;8401;52.528;13.340;2022-12-18T06:16:58;-4.90;99.90
16578;DHT22;8401;52.528;13.340;2022-12-18T06:19:23;-4.80;99.90
16578;DHT22;8401;52.528;13.340;2022-12-18T06:21:49;-4.90;99.90
16578;DHT22;8401;52.528;13.340;2022-12-18T06:24:15;-4.90;99.90
16578;DHT22;8401;52.528;13.340;2022-12-18T06:26:41;-4.80;99.90
16578;DHT22;8401;52.528;13.340;2022-12-18T06:29:07;-4.70;99.90
16578;DHT22;8401;52.528;13.340;2022-12-18T06:31:32;-4.80;99.90
16578;DHT22;8401;52.528;13.340;2022-12-18T06:33:58;-4.60;99.90
16578;DHT22;8401;52.528;13.340;2022-12-18T06:36:24;-4.60;99.90
16578;DHT22;8401;52.528;13.340;2022-12-18T06:38:49;-4.70;99.90
16578;DHT22;8401;52.528;13.340;2022-12-18T06:41:20;-4.70;99.90
16578;DHT22;8401;52.528;13.340;2022-12-18T06:43:46;-4.80;99.90
16578;DHT22;8401;52.528;13.340;2022-12-18T06:46:12;-4.80;99.90
16578;DHT22;8401;52.528;13.340;2022-12-18T06:48:38;-4.80;99.90
16578;DHT22;8401;52.528;13.340;2022-12-18T06:51:04;-4.90;99.90
16578;DHT22;8401;52.528;13.340;2022-12-18T06:53:30;-5.00;99.90
16578;DHT22;8401;52.528;13.340;2022-12-18T06:56:03;-5.00;99.90
16578;DHT22;8401;52.528;13.340;2022-12-18T06:58:29;-5.00;99.90
16578;DHT22;8401;52.528;13.340;2022-12-18T07:01:00;-5.10;99.90
16578;DHT22;8401;52.528;13.340;2022-12-18T07:03:26;-5.10;99.90
16578;DHT22;8401;52.528;13.340;2022-12-18T07:05:52;-5.10;99.90
16578;DHT22;8401;52.528;13.340;2022-12-18T07:08:17;-5.10;99.90
16578;DHT22;8401;52.528;13.340;2022-12-18T07:10:43;-5.20;99.90
16578;DHT22;8401;52.528;13.340;2022-12-18T07:13:09;-5.20;99.90
16578;DHT22;8401;52.528;13.340;2022-12-18T07:15:35;-5.20;99.90
16578;DHT22;8401;52.528;13.340;2022-12-18T07:18:00;-5.10;99.90
16578;DHT22;8401;52.528;13.340;2022-12-18T07:20:26;-5.10;99.90
16578;DHT22;8401;52.528;13.340;2022-12-18T07:22:52;-5.10;99.90
16578;DHT22;8401;52.528;13.340;2022-12-18T07:25:17;-5.10;99.90
16578;DHT22;8401;52.528;13.340;2022-12-18T07:27:43;-5.10;99.90
16578;DHT22;8401;52.528;13.340;2022-12-18T07:30:09;-5.20;99.90
16578;DHT22;8401;52.528;13.340;2022-12-18T07:32:35;-5.40;99.90
16578;DHT22;8401;52.528;13.340;2022-12-18T07:35:00;-5.40;99.90
16578;DHT22;8401;52.528;13.340;2022-12-18T07:37:26;-5.30;99.90
16578;DHT22;8401;52.528;13.340;2022-12-18T07:39:52;-5.20;99.90
16578;DHT22;8401;52.528;13.340;2022-12-18T07:42:17;-5.20;99.90
16578;DHT22;8401;52.528;13.340;2022-12-18T07:44:59;-5.20;99.90
16578;DHT22;8401;52.528;13.340;2022-12-18T07:47:25;-5.20;99.90
16578;DHT22;8401;52.528;13.340;2022-12-18T07:49:51;-5.20;99.90
16578;DHT22;8401;52.528;13.340;2022-12-18T07:52:16;-5.20;99.90
16578;DHT22;8401;52.528;13.340;2022-12-18T07:54:42;-5.10;99.90
16578;DHT22;8401;52.528;13.340;2022-12-18T07:57:08;-5.00;99.90
16578;DHT22;8401;52.528;13.340;2022-12-18T07:59:34;-5.00;99.90
16578;DHT22;8401;52.528;13.340;2022-12-18T08:01:59;-5.00;99.90
16578;DHT22;8401;52.528;13.340;2022-12-18T08:04:25;-4.90;99.90
16578;DHT22;8401;52.528;13.340;2022-12-18T08:06:51;-4.90;99.90
16578;DHT22;8401;52.528;13.340;2022-12-18T08:09:17;-4.90;99.90
16578;DHT22;8401;52.528;13.340;2022-12-18T08:11:43;-4.90;99.90
16578;DHT22;8401;52.528;13.340;2022-12-18T08:14:08;-5.00;99.90
16578;DHT22;8401;52.528;13.340;2022-12-18T08:16:35;-5.00;99.90
16578;DHT22;8401;52.528;13.340;2022-12-18T08:19:00;-5.00;99.90
16578;DHT22;8401;52.528;13.340;2022-12-18T08:21:28;-5.00;99.90
16578;DHT22;8401;52.528;13.340;2022-12-18T08:23:57;-5.00;99.90
16578;DHT22;8401;52.528;13.340;2022-12-18T08:26:24;-5.00;99.90
16578;DHT22;8401;52.528;13.340;2022-12-18T08:28:50;-4.90;99.90
16578;DHT22;8401;52.528;13.340;2022-12-18T08:31:17;-4.90;99.90
16578;DHT22;8401;52.528;13.340;2022-12-18T08:33:43;-4.80;99.90
16578;DHT22;8401;52.528;13.340;2022-12-18T08:36:09;-4.70;99.90
16578;DHT22;8401;52.528;13.340;2022-12-18T08:38:35;-4.70;99.90
16578;DHT22;8401;52.528;13.340;2022-12-18T08:41:01;-4.60;99.90
16578;DHT22;8401;52.528;13.340;2022-12-18T08:43:28;-4.50;99.90
16578;DHT22;8401;52.528;13.340;2022-12-18T08:46:12;-4.40;99.90
16578;DHT22;8401;52.528;13.340;2022-12-18T08:48:38;-4.50;99.90
16578;DHT22;8401;52.528;13.340;2022-12-18T08:51:04;-4.50;99.90
16578;DHT22;8401;52.528;13.340;2022-12-18T08:53:29;-4.60;99.90
16578;DHT22;8401;52.528;13.340;2022-12-18T08:55:56;-4.50;99.90
16578;DHT22;8401;52.528;13.340;2022-12-18T08:58:22;-4.60;99.90
16578;DHT22;8401;52.528;13.340;2022-12-18T09:00:47;-4.60;99.90
16578;DHT22;8401;52.528;13.340;2022-12-18T09:03:14;-4.70;99.90
16578;DHT22;8401;52.528;13.340;2022-12-18T09:05:40;-4.70;99.90
16578;DHT22;8401;52.528;13.340;2022-12-18T09:08:06;-4.70;99.90
16578;DHT22;8401;52.528;13.340;2022-12-18T09:10:32;-4.60;99.90
16578;DHT22;8401;52.528;13.340;2022-12-18T09:12:58;-4.60;99.90
16578;DHT22;8401;52.528;13.340;2022-12-18T09:15:24;-4.50;99.90
16578;DHT22;8401;52.528;13.340;2022-12-18T09:17:50;-4.30;99.90
16578;DHT22;8401;52.528;13.340;2022-12-18T09:20:18;-4.30;99.90
16578;DHT22;8401;52.528;13.340;2022-12-18T09:22:44;-4.20;99.90
16578;DHT22;8401;52.528;13.340;2022-12-18T09:25:09;-4.20;99.90
16578;DHT22;8401;52.528;13.340;2022-12-18T09:27:35;-4.40;99.90
16578;DHT22;8401;52.528;13.340;2022-12-18T09:30:01;-4.50;99.90
16578;DHT22;8401;52.528;13.340;2022-12-18T09:32:27;-4.40;99.90
16578;DHT22;8401;52.528;13.340;2022-12-18T09:34:53;-4.40;99.90
16578;DHT22;8401;52.528;13.340;2022-12-18T09:37:18;-4.40;99.90
16578;DHT22;8401;52.528;13.340;2022-12-18T09:39:44;-4.20;99.90
16578;DHT22;8401;52.528;13.340;2022-12-18T09:42:22;-4.10;99.90
16578;DHT22;8401;52.528;13.340;2022-12-18T09:44:53;-4.00;99.90
16578;DHT22;8401;52.528;13.340;2022-12-18T09:47:23;-4.20;99.90
16578;DHT22;8401;52.528;13.340;2022-12-18T09:49:53;-4.30;99.90
16578;DHT22;8401;52.528;13.340;2022-12-18T09:57:49;-4.30;99.90
16578;DHT22;8401;52.528;13.340;2022-12-18T10:00:21;-4.30;99.90
16578;DHT22;8401;52.528;13.340;2022-12-18T10:02:48;-4.30;99.90
16578;DHT22;8401;52.528;13.340;2022-12-18T10:05:19;-4.20;99.90
16578;DHT22;8401;52.528;13.340;2022-12-18T10:15:49;-4.00;99.90
16578;DHT22;8401;52.528;13.340;2022-12-18T10:21:28;-3.90;99.90
16578;DHT22;8401;52.528;13.340;2022-12-18T10:26:47;-3.90;99.90
16578;DHT22;8401;52.528;13.340;2022-12-18T10:29:15;-3.80;99.90
16578;DHT22;8401;52.528;13.340;2022-12-18T10:31:40;-3.70;99.90
16578;DHT22;8401;52.528;13.340;2022-12-18T10:34:10;-3.70;99.90
16578;DHT22;8401;52.528;13.340;2022-12-18T10:36:37;-3.60;99.90
16578;DHT22;8401;52.528;13.340;2022-12-18T10:39:17;-3.60;99.90
16578;DHT22;8401;52.528;13.340;2022-12-18T10:41:43;-3.70;99.90
16578;DHT22;8401;52.528;13.340;2022-12-18T10:44:14;-3.70;99.90
16578;DHT22;8401;52.528;13.340;2022-12-18T10:46:41;-3.70;99.90
16578;DHT22;8401;52.528;13.340;2022-12-18T10:49:19;-3.70;99.90
16578;DHT22;8401;52.528;13.340;2022-12-18T10:51:46;-3.70;99.90
16578;DHT22;8401;52.528;13.340;2022-12-18T10:54:21;-3.70;99.90
16578;DHT22;8401;52.528;13.340;2022-12-18T10:56:47;-3.60;99.90
16578;DHT22;8401;52.528;13.340;2022-12-18T10:59:16;-3.60;99.90
16578;DHT22;8401;52.528;13.340;2022-12-18T11:01:53;-3.60;99.90
16578;DHT22;8401;52.528;13.340;2022-12-18T11:04:24;-3.60;99.90
16578;DHT22;8401;52.528;13.340;2022-12-18T11:07:03;-3.60;99.90
16578;DHT22;8401;52.528;13.340;2022-12-18T11:09:31;-3.50;99.90
16578;DHT22;8401;52.528;13.340;2022-12-18T11:12:00;-3.40;99.90
16578;DHT22;8401;52.528;13.340;2022-12-18T11:14:33;-3.30;99.90
16578;DHT22;8401;52.528;13.340;2022-12-18T11:17:00;-3.20;99.90
16578;DHT22;8401;52.528;13.340;2022-12-18T11:19:36;-3.10;99.90
16578;DHT22;8401;52.528;13.340;2022-12-18T11:22:21;-3.00;99.90
16578;DHT22;8401;52.528;13.340;2022-12-18T11:25:04;-2.90;99.90
16578;DHT22;8401;52.528;13.340;2022-12-18T11:27:31;-3.00;99.90
16578;DHT22;8401;52.528;13.340;2022-12-18T11:30:21;-3.00;99.90
16578;DHT22;8401;52.528;13.340;2022-12-18T11:33:19;-2.90;99.90
16578;DHT22;8401;52.528;13.340;2022-12-18T11:35:55;-2.90;99.90
16578;DHT22;8401;52.528;13.340;2022-12-18T11:38:26;-2.90;99.90
16578;DHT22;8401;52.528;13.340;2022-12-18T11:41:29;-2.80;99.90
16578;DHT22;8401;52.528;13.340;2022-12-18T11:44:28;-2.90;99.90
16578;DHT22;8401;52.528;13.340;2022-12-18T11:47:07;-2.90;99.90
16578;DHT22;8401;52.528;13.340;2022-12-18T11:49:35;-2.80;99.90
16578;DHT22;8401;52.528;13.340;2022-12-18T11:54:42;-2.90;99.90
16578;DHT22;8401;52.528;13.340;2022-12-18T11:57:23;-2.90;99.90
16578;DHT22;8401;52.528;13.340;2022-12-18T11:59:56;-2.90;99.90
16578;DHT22;8401;52.528;13.340;2022-12-18T12:02:38;-2.90;99.90
16578;DHT22;8401;52.528;13.340;2022-12-18T12:26:16;-3.10;99.90
16578;DHT22;8401;52.528;13.340;2022-12-18T12:32:11;-3.00;99.90
16578;DHT22;8401;52.528;13.340;2022-12-18T12:34:21;-3.00;99.90
16578;DHT22;8401;52.528;13.340;2022-12-18T12:37:15;-2.90;99.90
16578;DHT22;8401;52.528;13.340;2022-12-18T12:39:44;-2.90;99.90
16578;DHT22;8401;52.528;13.340;2022-12-18T12:42:19;-2.80;99.90
16578;DHT22;8401;52.528;13.340;2022-12-18T12:45:05;-2.70;99.90
16578;DHT22;8401;52.528;13.340;2022-12-18T12:47:38;-2.80;99.90
16578;DHT22;8401;52.528;13.340;2022-12-18T12:50:16;-2.80;99.90
16578;DHT22;8401;52.528;13.340;2022-12-18T12:52:46;-2.90;99.90
16578;DHT22;8401;52.528;13.340;2022-12-18T12:55:21;-2.70;99.90
16578;DHT22;8401;52.528;13.340;2022-12-18T12:57:54;-2.70;99.90
16578;DHT22;8401;52.528;13.340;2022-12-18T13:00:21;-2.70;99.90
16578;DHT22;8401;52.528;13.340;2022-12-18T13:05:53;-2.70;99.90
16578;DHT22;8401;52.528;13.340;2022-12-18T13:08:27;-2.70;99.90
16578;DHT22;8401;52.528;13.340;2022-12-18T13:10:55;-2.70;99.90
16578;DHT22;8401;52.528;13.340;2022-12-18T13:16:19;-2.60;99.90
16578;DHT22;8401;52.528;13.340;2022-12-18T13:18:50;-2.70;99.90
16578;DHT22;8401;52.528;13.340;2022-12-18T13:21:22;-2.80;99.90
16578;DHT22;8401;52.528;13.340;2022-12-18T13:23:49;-2.80;99.90
16578;DHT22;8401;52.528;13.340;2022-12-18T13:31:57;-2.80;99.90
16578;DHT22;8401;52.528;13.340;2022-12-18T13:34:25;-2.70;99.90
16578;DHT22;8401;52.528;13.340;2022-12-18T13:36:53;-2.70;99.90
16578;DHT22;8401;52.528;13.340;2022-12-18T13:41:53;-2.70;99.90
16578;DHT22;8401;52.528;13.340;2022-12-18T13:44:38;-2.80;99.90
16578;DHT22;8401;52.528;13.340;2022-12-18T13:47:34;-2.80;99.90
16578;DHT22;8401;52.528;13.340;2022-12-18T13:50:22;-2.80;99.90
16578;DHT22;8401;52.528;13.340;2022-12-18T13:52:48;-2.90;99.90
16578;DHT22;8401;52.528;13.340;2022-12-18T13:55:19;-2.90;99.90
16578;DHT22;8401;52.528;13.340;2022-12-18T13:57:46;-2.90;99.90
16578;DHT22;8401;52.528;13.340;2022-12-18T14:00:31;-3.00;99.90
16578;DHT22;8401;52.528;13.340;2022-12-18T14:02:58;-3.00;99.90
16578;DHT22;8401;52.528;13.340;2022-12-18T14:05:26;-2.90;99.90
16578;DHT22;8401;52.528;13.340;2022-12-18T14:07:53;-2.90;99.90
16578;DHT22;8401;52.528;13.340;2022-12-18T14:10:19;-2.90;99.90
16578;DHT22;8401;52.528;13.340;2022-12-18T14:12:48;-2.80;99.90
16578;DHT22;8401;52.528;13.340;2022-12-18T14:17:59;-2.70;99.90
16578;DHT22;8401;52.528;13.340;2022-12-18T14:20:29;-2.80;99.90
16578;DHT22;8401;52.528;13.340;2022-12-18T14:22:55;-2.90;99.90
16578;DHT22;8401;52.528;13.340;2022-12-18T14:25:22;-2.90;99.90
16578;DHT22;8401;52.528;13.340;2022-12-18T14:30:43;-2.80;99.90
16578;DHT22;8401;52.528;13.340;2022-12-18T14:35:42;-2.90;99.90
16578;DHT22;8401;52.528;13.340;2022-12-18T14:38:23;-3.00;99.90
16578;DHT22;8401;52.528;13.340;2022-12-18T14:40:53;-3.00;99.90
16578;DHT22;8401;52.528;13.340;2022-12-18T14:43:19;-3.00;99.90
16578;DHT22;8401;52.528;13.340;2022-12-18T14:45:45;-3.10;99.90
16578;DHT22;8401;52.528;13.340;2022-12-18T14:51:17;-3.10;99.90
16578;DHT22;8401;52.528;13.340;2022-12-18T14:53:55;-3.10;99.90
16578;DHT22;8401;52.528;13.340;2022-12-18T14:56:33;-3.00;99.90
16578;DHT22;8401;52.528;13.340;2022-12-18T14:59:04;-3.00;99.90
16578;DHT22;8401;52.528;13.340;2022-12-18T15:01:37;-2.90;99.90
16578;DHT22;8401;52.528;13.340;2022-12-18T15:04:32;-2.80;99.90
16578;DHT22;8401;52.528;13.340;2022-12-18T15:09:34;-2.90;99.90
16578;DHT22;8401;52.528;13.340;2022-12-18T15:12:01;-3.00;99.90
16578;DHT22;8401;52.528;13.340;2022-12-18T15:14:33;-3.20;99.90
16578;DHT22;8401;52.528;13.340;2022-12-18T15:17:03;-3.30;99.90
16578;DHT22;8401;52.528;13.340;2022-12-18T15:19:39;-3.30;99.90
16578;DHT22;8401;52.528;13.340;2022-12-18T15:22:18;-3.40;99.90
16578;DHT22;8401;52.528;13.340;2022-12-18T15:24:45;-3.40;99.90
16578;DHT22;8401;52.528;13.340;2022-12-18T15:27:40;-3.50;99.90
16578;DHT22;8401;52.528;13.340;2022-12-18T15:30:19;-3.60;99.90
16578;DHT22;8401;52.528;13.340;2022-12-18T15:32:46;-3.50;99.90
16578;DHT22;8401;52.528;13.340;2022-12-18T15:35:21;-3.50;99.90
16578;DHT22;8401;52.528;13.340;2022-12-18T15:37:47;-3.50;99.90
16578;DHT22;8401;52.528;13.340;2022-12-18T15:40:15;-3.50;99.90
16578;DHT22;8401;52.528;13.340;2022-12-18T15:42:41;-3.50;99.90
16578;DHT22;8401;52.528;13.340;2022-12-18T15:45:26;-3.40;99.90
16578;DHT22;8401;52.528;13.340;2022-12-18T15:47:52;-3.40;99.90
16578;DHT22;8401;52.528;13.340;2022-12-18T15:50:18;-3.40;99.90
16578;DHT22;8401;52.528;13.340;2022-12-18T15:52:49;-3.30;99.90
16578;DHT22;8401;52.528;13.340;2022-12-18T15:55:19;-3.30;99.90
16578;DHT22;8401;52.528;13.340;2022-12-18T15:58:05;-3.30;99.90
16578;DHT22;8401;52.528;13.340;2022-12-18T16:00:32;-3.20;99.90
16578;DHT22;8401;52.528;13.340;2022-12-18T16:02:58;-3.20;99.90
16578;DHT22;8401;52.528;13.340;2022-12-18T16:05:25;-3.10;99.90
16578;DHT22;8401;52.528;13.340;2022-12-18T16:07:52;-3.20;99.90
16578;DHT22;8401;52.528;13.340;2022-12-18T16:10:17;-3.40;99.90
16578;DHT22;8401;52.528;13.340;2022-12-18T16:12:43;-3.50;99.90
16578;DHT22;8401;52.528;13.340;2022-12-18T16:15:12;-3.50;99.90
16578;DHT22;8401;52.528;13.340;2022-12-18T16:17:39;-3.50;99.90
16578;DHT22;8401;52.528;13.340;2022-12-18T16:20:07;-3.50;99.90
16578;DHT22;8401;52.528;13.340;2022-12-18T16:22:37;-3.50;99.90
16578;DHT22;8401;52.528;13.340;2022-12-18T16:25:02;-3.50;99.90
16578;DHT22;8401;52.528;13.340;2022-12-18T16:27:28;-3.40;99.90
16578;DHT22;8401;52.528;13.340;2022-12-18T16:29:54;-3.40;99.90
16578;DHT22;8401;52.528;13.340;2022-12-18T16:32:20;-3.40;99.90
16578;DHT22;8401;52.528;13.340;2022-12-18T16:34:47;-3.40;99.90
16578;DHT22;8401;52.528;13.340;2022-12-18T16:37:14;-3.40;99.90
16578;DHT22;8401;52.528;13.340;2022-12-18T16:39:41;-3.40;99.90
16578;DHT22;8401;52.528;13.340;2022-12-18T16:42:15;-3.40;99.90
16578;DHT22;8401;52.528;13.340;2022-12-18T16:44:42;-3.40;99.90
16578;DHT22;8401;52.528;13.340;2022-12-18T16:47:08;-3.40;99.90
16578;DHT22;8401;52.528;13.340;2022-12-18T16:49:34;-3.40;99.90
16578;DHT22;8401;52.528;13.340;2022-12-18T16:52:03;-3.40;99.90
16578;DHT22;8401;52.528;13.340;2022-12-18T16:54:30;-3.40;99.90
16578;DHT22;8401;52.528;13.340;2022-12-18T16:56:56;-3.30;99.90
16578;DHT22;8401;52.528;13.340;2022-12-18T16:59:22;-3.30;99.90
16578;DHT22;8401;52.528;13.340;2022-12-18T17:01:47;-3.30;99.90
16578;DHT22;8401;52.528;13.340;2022-12-18T17:04:13;-3.30;99.90
16578;DHT22;8401;52.528;13.340;2022-12-18T17:06:42;-3.30;99.90
16578;DHT22;8401;52.528;13.340;2022-12-18T17:09:14;-3.20;99.90
16578;DHT22;8401;52.528;13.340;2022-12-18T17:11:41;-3.20;99.90
16578;DHT22;8401;52.528;13.340;2022-12-18T17:14:09;-3.20;99.90
16578;DHT22;8401;52.528;13.340;2022-12-18T17:16:35;-3.20;99.90
16578;DHT22;8401;52.528;13.340;2022-12-18T17:19:01;-3.20;99.90
16578;DHT22;8401;52.528;13.340;2022-12-18T17:21:27;-3.30;99.90
16578;DHT22;8401;52.528;13.340;2022-12-18T17:23:53;-3.20;99.90
16578;DHT22;8401;52.528;13.340;2022-12-18T17:26:18;-3.20;99.90